sensor_id;sensor_type;location;lat;lon;timestamp;P1;durP1;ratioP1;P2;durP2;ratioP2
77298;SDS011;66361;52.034;20.656;2023-07-31T05:20:08;3.75;;;2.90;;
77298;SDS011;66361;52.034;20.656;2023-07-31T05:24:12;4.07;;;3.00;;
77298;SDS011;66361;52.034;20.656;2023-07-31T05:28:15;5.57;;;2.95;;
77298;SDS011;66361;52.034;20.656;2023-07-31T05:32:20;5.00;;;2.95;;
77298;SDS011;66361;52.034;20.656;2023-07-31T05:36:23;4.57;;;3.22;;
77298;SDS011;66361;52.034;20.656;2023-07-31T05:40:26;5.80;;;3.03;;
77298;SDS011;66361;52.034;20.656;2023-07-31T05:44:29;4.35;;;3.10;;
77298;SDS011;66361;52.034;20.656;2023-07-31T05:48:34;4.15;;;3.28;;
77298;SDS011;66361;52.034;20.656;2023-07-31T05:52:37;5.30;;;3.38;;
77298;SDS011;66361;52.034;20.656;2023-07-31T05:56:39;4.82;;;3.30;;
77298;SDS011;66361;52.034;20.656;2023-07-31T06:00:42;4.60;;;3.08;;
77298;SDS011;66361;52.034;20.656;2023-07-31T06:04:47;5.60;;;3.10;;
77298;SDS011;66361;52.034;20.656;2023-07-31T06:08:50;4.60;;;3.45;;
77298;SDS011;66361;52.034;20.656;2023-07-31T06:12:54;4.68;;;3.20;;
77298;SDS011;66361;52.034;20.656;2023-07-31T06:16:59;4.95;;;3.42;;
77298;SDS011;66361;52.034;20.656;2023-07-31T06:21:04;4.97;;;3.17;;
77298;SDS011;66361;52.034;20.656;2023-07-31T06:25:08;3.88;;;3.17;;
77298;SDS011;66361;52.034;20.656;2023-07-31T06:29:15;5.30;;;3.20;;
77298;SDS011;66361;52.034;20.656;2023-07-31T06:33:18;5.07;;;3.08;;
77298;SDS011;66361;52.034;20.656;2023-07-31T06:37:23;4.53;;;2.90;;
77298;SDS011;66361;52.034;20.656;2023-07-31T06:41:26;4.85;;;2.72;;
77298;SDS011;66361;52.034;20.656;2023-07-31T06:45:29;8.65;;;5.63;;
77298;SDS011;66361;52.034;20.656;2023-07-31T06:49:32;7.03;;;3.13;;
77298;SDS011;66361;52.034;20.656;2023-07-31T06:53:37;3.78;;;2.90;;
77298;SDS011;66361;52.034;20.656;2023-07-31T06:57:40;4.47;;;2.60;;
77298;SDS011;66361;52.034;20.656;2023-07-31T07:01:43;4.45;;;2.78;;
77298;SDS011;66361;52.034;20.656;2023-07-31T07:05:47;4.75;;;2.95;;
77298;SDS011;66361;52.034;20.656;2023-07-31T07:09:52;3.53;;;2.60;;
77298;SDS011;66361;52.034;20.656;2023-07-31T07:13:55;3.83;;;2.83;;
77298;SDS011;66361;52.034;20.656;2023-07-31T07:17:58;4.03;;;2.40;;
77298;SDS011;66361;52.034;20.656;2023-07-31T07:22:01;3.58;;;2.50;;
77298;SDS011;66361;52.034;20.656;2023-07-31T07:26:06;4.07;;;2.38;;
77298;SDS011;66361;52.034;20.656;2023-07-31T07:30:10;4.18;;;2.20;;
77298;SDS011;66361;52.034;20.656;2023-07-31T07:34:13;3.88;;;2.60;;
77298;SDS011;66361;52.034;20.656;2023-07-31T07:38:16;3.33;;;2.58;;
77298;SDS011;66361;52.034;20.656;2023-07-31T07:42:22;3.65;;;2.47;;
77298;SDS011;66361;52.034;20.656;2023-07-31T07:46:25;5.57;;;2.40;;
77298;SDS011;66361;52.034;20.656;2023-07-31T07:50:31;5.68;;;2.50;;
77298;SDS011;66361;52.034;20.656;2023-07-31T07:54:35;3.58;;;2.45;;
77298;SDS011;66361;52.034;20.656;2023-07-31T07:58:42;3.40;;;2.53;;
77298;SDS011;66361;52.034;20.656;2023-07-31T08:02:46;4.35;;;2.70;;
77298;SDS011;66361;52.034;20.656;2023-07-31T08:06:49;3.13;;;2.38;;
77298;SDS011;66361;52.034;20.656;2023-07-31T08:10:52;4.35;;;2.40;;
77298;SDS011;66361;52.034;20.656;2023-07-31T08:14:57;2.80;;;2.17;;
77298;SDS011;66361;52.034;20.656;2023-07-31T08:19:01;3.13;;;2.20;;
77298;SDS011;66361;52.034;20.656;2023-07-31T08:23:04;2.95;;;2.00;;
77298;SDS011;66361;52.034;20.656;2023-07-31T08:27:07;2.83;;;2.15;;
77298;SDS011;66361;52.034;20.656;2023-07-31T08:31:13;3.97;;;2.30;;
77298;SDS011;66361;52.034;20.656;2023-07-31T08:35:17;4.90;;;2.40;;
77298;SDS011;66361;52.034;20.656;2023-07-31T08:39:20;3.55;;;2.17;;
77298;SDS011;66361;52.034;20.656;2023-07-31T08:43:25;3.67;;;2.25;;
77298;SDS011;66361;52.034;20.656;2023-07-31T08:47:30;2.67;;;2.17;;
77298;SDS011;66361;52.034;20.656;2023-07-31T08:51:34;4.40;;;2.63;;
77298;SDS011;66361;52.034;20.656;2023-07-31T08:55:38;3.45;;;2.45;;
77298;SDS011;66361;52.034;20.656;2023-07-31T08:59:42;2.97;;;2.15;;
77298;SDS011;66361;52.034;20.656;2023-07-31T09:03:47;3.03;;;2.20;;
77298;SDS011;66361;52.034;20.656;2023-07-31T09:07:53;2.30;;;1.95;;
77298;SDS011;66361;52.034;20.656;2023-07-31T09:11:58;4.55;;;2.45;;
77298;SDS011;66361;52.034;20.656;2023-07-31T09:16:02;3.80;;;2.40;;
77298;SDS011;66361;52.034;20.656;2023-07-31T09:20:17;4.43;;;2.35;;
77298;SDS011;66361;52.034;20.656;2023-07-31T09:24:25;3.58;;;2.45;;
77298;SDS011;66361;52.034;20.656;2023-07-31T09:28:30;5.65;;;2.58;;
77298;SDS011;66361;52.034;20.656;2023-07-31T09:32:34;5.07;;;2.45;;
77298;SDS011;66361;52.034;20.656;2023-07-31T09:36:44;4.80;;;2.17;;
77298;SDS011;66361;52.034;20.656;2023-07-31T09:40:48;3.30;;;2.03;;
77298;SDS011;66361;52.034;20.656;2023-07-31T09:44:53;2.33;;;2.00;;
77298;SDS011;66361;52.034;20.656;2023-07-31T09:49:03;3.95;;;2.38;;
77298;SDS011;66361;52.034;20.656;2023-07-31T09:53:14;3.20;;;2.30;;
77298;SDS011;66361;52.034;20.656;2023-07-31T09:57:19;2.95;;;2.20;;
77298;SDS011;66361;52.034;20.656;2023-07-31T10:01:24;4.65;;;2.33;;
77298;SDS011;66361;52.034;20.656;2023-07-31T10:05:30;4.03;;;2.47;;
77298;SDS011;66361;52.034;20.656;2023-07-31T10:09:38;2.75;;;2.17;;
77298;SDS011;66361;52.034;20.656;2023-07-31T10:13:40;2.47;;;1.98;;
77298;SDS011;66361;52.034;20.656;2023-07-31T10:17:46;3.95;;;2.22;;
77298;SDS011;66361;52.034;20.656;2023-07-31T10:21:50;3.08;;;2.30;;
77298;SDS011;66361;52.034;20.656;2023-07-31T10:25:55;3.40;;;2.20;;
77298;SDS011;66361;52.034;20.656;2023-07-31T10:30:01;3.30;;;2.17;;
77298;SDS011;66361;52.034;20.656;2023-07-31T10:34:08;4.75;;;2.10;;
77298;SDS011;66361;52.034;20.656;2023-07-31T10:38:12;3.78;;;2.15;;
77298;SDS011;66361;52.034;20.656;2023-07-31T10:42:16;4.43;;;3.22;;
77298;SDS011;66361;52.034;20.656;2023-07-31T10:46:19;4.85;;;2.30;;
77298;SDS011;66361;52.034;20.656;2023-07-31T10:50:24;5.30;;;2.60;;
77298;SDS011;66361;52.034;20.656;2023-07-31T10:54:27;3.25;;;2.13;;
77298;SDS011;66361;52.034;20.656;2023-07-31T10:58:32;4.05;;;2.40;;
77298;SDS011;66361;52.034;20.656;2023-07-31T11:02:36;3.63;;;2.10;;
77298;SDS011;66361;52.034;20.656;2023-07-31T11:06:39;4.05;;;2.17;;
77298;SDS011;66361;52.034;20.656;2023-07-31T11:10:43;3.70;;;2.15;;
77298;SDS011;66361;52.034;20.656;2023-07-31T11:14:54;3.20;;;1.90;;
77298;SDS011;66361;52.034;20.656;2023-07-31T11:18:58;3.15;;;1.77;;
77298;SDS011;66361;52.034;20.656;2023-07-31T11:23:01;3.38;;;1.70;;
77298;SDS011;66361;52.034;20.656;2023-07-31T11:27:07;3.83;;;2.00;;
77298;SDS011;66361;52.034;20.656;2023-07-31T11:31:12;4.30;;;1.73;;
77298;SDS011;66361;52.034;20.656;2023-07-31T11:35:15;2.92;;;1.80;;
77298;SDS011;66361;52.034;20.656;2023-07-31T11:39:18;2.53;;;2.03;;
77298;SDS011;66361;52.034;20.656;2023-07-31T11:43:21;3.08;;;1.92;;
77298;SDS011;66361;52.034;20.656;2023-07-31T11:47:27;2.50;;;1.90;;
77298;SDS011;66361;52.034;20.656;2023-07-31T11:51:30;5.75;;;1.80;;
77298;SDS011;66361;52.034;20.656;2023-07-31T11:55:37;4.00;;;2.40;;
77298;SDS011;66361;52.034;20.656;2023-07-31T11:59:40;2.72;;;2.05;;
77298;SDS011;66361;52.034;20.656;2023-07-31T12:03:46;4.53;;;2.55;;
77298;SDS011;66361;52.034;20.656;2023-07-31T12:07:51;5.15;;;2.20;;
77298;SDS011;66361;52.034;20.656;2023-07-31T12:11:57;2.95;;;2.15;;
77298;SDS011;66361;52.034;20.656;2023-07-31T12:16:01;3.08;;;2.00;;
77298;SDS011;66361;52.034;20.656;2023-07-31T12:20:07;2.70;;;2.35;;
77298;SDS011;66361;52.034;20.656;2023-07-31T12:24:12;3.13;;;1.75;;
77298;SDS011;66361;52.034;20.656;2023-07-31T12:28:15;5.90;;;2.10;;
77298;SDS011;66361;52.034;20.656;2023-07-31T12:32:21;3.97;;;2.30;;
77298;SDS011;66361;52.034;20.656;2023-07-31T12:36:28;4.47;;;2.10;;
77298;SDS011;66361;52.034;20.656;2023-07-31T12:40:37;3.67;;;2.13;;
77298;SDS011;66361;52.034;20.656;2023-07-31T12:44:41;4.63;;;2.50;;
77298;SDS011;66361;52.034;20.656;2023-07-31T12:48:44;3.50;;;2.20;;
77298;SDS011;66361;52.034;20.656;2023-07-31T12:52:48;3.35;;;1.95;;
77298;SDS011;66361;52.034;20.656;2023-07-31T12:56:51;2.97;;;1.95;;
77298;SDS011;66361;52.034;20.656;2023-07-31T13:00:56;5.28;;;2.55;;
77298;SDS011;66361;52.034;20.656;2023-07-31T13:04:59;2.63;;;1.95;;
77298;SDS011;66361;52.034;20.656;2023-07-31T13:09:06;3.58;;;2.10;;
77298;SDS011;66361;52.034;20.656;2023-07-31T13:13:11;4.28;;;1.90;;
77298;SDS011;66361;52.034;20.656;2023-07-31T13:17:17;3.90;;;1.98;;
77298;SDS011;66361;52.034;20.656;2023-07-31T13:21:20;4.05;;;2.08;;
77298;SDS011;66361;52.034;20.656;2023-07-31T13:25:25;4.68;;;2.20;;
77298;SDS011;66361;52.034;20.656;2023-07-31T13:29:28;3.47;;;2.00;;
77298;SDS011;66361;52.034;20.656;2023-07-31T13:33:52;5.32;;;2.58;;
77298;SDS011;66361;52.034;20.656;2023-07-31T13:37:55;3.05;;;1.85;;
77298;SDS011;66361;52.034;20.656;2023-07-31T13:42:00;3.75;;;1.95;;
77298;SDS011;66361;52.034;20.656;2023-07-31T13:46:03;3.92;;;1.90;;
77298;SDS011;66361;52.034;20.656;2023-07-31T13:50:08;2.70;;;1.88;;
77298;SDS011;66361;52.034;20.656;2023-07-31T13:54:11;3.97;;;1.70;;
77298;SDS011;66361;52.034;20.656;2023-07-31T13:58:18;2.65;;;1.77;;
77298;SDS011;66361;52.034;20.656;2023-07-31T14:02:21;4.22;;;2.33;;
77298;SDS011;66361;52.034;20.656;2023-07-31T14:06:24;6.63;;;2.10;;
77298;SDS011;66361;52.034;20.656;2023-07-31T14:10:27;3.70;;;2.10;;
77298;SDS011;66361;52.034;20.656;2023-07-31T14:14:32;3.65;;;2.03;;
77298;SDS011;66361;52.034;20.656;2023-07-31T14:18:36;3.55;;;2.03;;
77298;SDS011;66361;52.034;20.656;2023-07-31T14:22:39;4.00;;;2.72;;
77298;SDS011;66361;52.034;20.656;2023-07-31T14:26:42;3.08;;;2.00;;
77298;SDS011;66361;52.034;20.656;2023-07-31T14:30:47;3.05;;;2.00;;
77298;SDS011;66361;52.034;20.656;2023-07-31T14:34:50;3.65;;;2.20;;
77298;SDS011;66361;52.034;20.656;2023-07-31T14:38:53;3.42;;;1.90;;
77298;SDS011;66361;52.034;20.656;2023-07-31T14:42:56;2.10;;;1.90;;
77298;SDS011;66361;52.034;20.656;2023-07-31T14:47:01;4.65;;;2.58;;
77298;SDS011;66361;52.034;20.656;2023-07-31T14:51:04;3.55;;;1.98;;
77298;SDS011;66361;52.034;20.656;2023-07-31T14:55:07;4.72;;;2.08;;
77298;SDS011;66361;52.034;20.656;2023-07-31T14:59:11;3.83;;;2.17;;
77298;SDS011;66361;52.034;20.656;2023-07-31T15:03:16;3.67;;;1.83;;
77298;SDS011;66361;52.034;20.656;2023-07-31T15:07:19;3.05;;;1.95;;
77298;SDS011;66361;52.034;20.656;2023-07-31T15:11:25;3.22;;;1.98;;
77298;SDS011;66361;52.034;20.656;2023-07-31T15:15:28;4.20;;;2.15;;
77298;SDS011;66361;52.034;20.656;2023-07-31T15:19:33;4.28;;;2.33;;
77298;SDS011;66361;52.034;20.656;2023-07-31T15:23:37;4.68;;;2.17;;
77298;SDS011;66361;52.034;20.656;2023-07-31T15:27:41;3.58;;;2.20;;
77298;SDS011;66361;52.034;20.656;2023-07-31T15:31:44;2.70;;;2.00;;
77298;SDS011;66361;52.034;20.656;2023-07-31T15:35:48;4.90;;;2.53;;
77298;SDS011;66361;52.034;20.656;2023-07-31T15:39:52;3.15;;;2.20;;
77298;SDS011;66361;52.034;20.656;2023-07-31T15:43:55;5.35;;;2.10;;
77298;SDS011;66361;52.034;20.656;2023-07-31T15:47:58;6.38;;;2.50;;
77298;SDS011;66361;52.034;20.656;2023-07-31T15:52:03;4.38;;;2.13;;
77298;SDS011;66361;52.034;20.656;2023-07-31T15:56:09;5.25;;;2.10;;
77298;SDS011;66361;52.034;20.656;2023-07-31T16:00:12;5.00;;;2.30;;
77298;SDS011;66361;52.034;20.656;2023-07-31T16:04:16;3.67;;;2.45;;
77298;SDS011;66361;52.034;20.656;2023-07-31T16:08:20;5.57;;;2.30;;
77298;SDS011;66361;52.034;20.656;2023-07-31T16:12:23;3.30;;;1.92;;
77298;SDS011;66361;52.034;20.656;2023-07-31T16:16:27;4.20;;;2.20;;
77298;SDS011;66361;52.034;20.656;2023-07-31T16:20:30;5.30;;;2.90;;
77298;SDS011;66361;52.034;20.656;2023-07-31T16:24:36;5.20;;;2.20;;
77298;SDS011;66361;52.034;20.656;2023-07-31T16:28:39;5.00;;;2.35;;
77298;SDS011;66361;52.034;20.656;2023-07-31T16:32:46;6.68;;;3.33;;
77298;SDS011;66361;52.034;20.656;2023-07-31T16:36:51;5.45;;;2.50;;
77298;SDS011;66361;52.034;20.656;2023-07-31T16:40:57;6.13;;;2.50;;
77298;SDS011;66361;52.034;20.656;2023-07-31T16:45:00;3.20;;;2.17;;
77298;SDS011;66361;52.034;20.656;2023-07-31T16:49:03;4.50;;;2.30;;
77298;SDS011;66361;52.034;20.656;2023-07-31T16:53:07;4.00;;;2.20;;
77298;SDS011;66361;52.034;20.656;2023-07-31T16:57:13;3.40;;;2.35;;
77298;SDS011;66361;52.034;20.656;2023-07-31T17:01:16;3.97;;;2.20;;
77298;SDS011;66361;52.034;20.656;2023-07-31T17:05:19;5.53;;;2.47;;
77298;SDS011;66361;52.034;20.656;2023-07-31T17:09:23;4.38;;;2.47;;
77298;SDS011;66361;52.034;20.656;2023-07-31T17:13:28;3.97;;;2.40;;
77298;SDS011;66361;52.034;20.656;2023-07-31T17:17:31;3.28;;;2.50;;
77298;SDS011;66361;52.034;20.656;2023-07-31T17:21:34;4.25;;;2.40;;
77298;SDS011;66361;52.034;20.656;2023-07-31T17:25:38;4.15;;;2.40;;
77298;SDS011;66361;52.034;20.656;2023-07-31T17:29:43;5.40;;;2.63;;
77298;SDS011;66361;52.034;20.656;2023-07-31T17:33:46;3.90;;;2.38;;
77298;SDS011;66361;52.034;20.656;2023-07-31T17:37:50;3.10;;;2.50;;
77298;SDS011;66361;52.034;20.656;2023-07-31T17:41:53;4.32;;;3.00;;
77298;SDS011;66361;52.034;20.656;2023-07-31T17:46:00;4.22;;;2.45;;
77298;SDS011;66361;52.034;20.656;2023-07-31T17:50:05;3.90;;;2.22;;
77298;SDS011;66361;52.034;20.656;2023-07-31T17:54:11;5.43;;;2.53;;
77298;SDS011;66361;52.034;20.656;2023-07-31T17:58:15;4.55;;;2.42;;
77298;SDS011;66361;52.034;20.656;2023-07-31T18:02:20;5.55;;;2.60;;
77298;SDS011;66361;52.034;20.656;2023-07-31T18:06:23;3.78;;;2.70;;
77298;SDS011;66361;52.034;20.656;2023-07-31T18:10:26;7.32;;;2.53;;
77298;SDS011;66361;52.034;20.656;2023-07-31T18:14:29;4.10;;;2.38;;
77298;SDS011;66361;52.034;20.656;2023-07-31T18:18:37;5.00;;;3.10;;
77298;SDS011;66361;52.034;20.656;2023-07-31T18:22:40;3.83;;;2.78;;
77298;SDS011;66361;52.034;20.656;2023-07-31T18:26:43;4.15;;;2.55;;
77298;SDS011;66361;52.034;20.656;2023-07-31T18:30:46;3.20;;;2.40;;
77298;SDS011;66361;52.034;20.656;2023-07-31T18:34:50;6.18;;;2.63;;
77298;SDS011;66361;52.034;20.656;2023-07-31T18:38:56;3.92;;;2.60;;
77298;SDS011;66361;52.034;20.656;2023-07-31T18:43:00;4.50;;;2.90;;
77298;SDS011;66361;52.034;20.656;2023-07-31T18:47:03;3.95;;;2.90;;
77298;SDS011;66361;52.034;20.656;2023-07-31T18:51:08;3.85;;;2.70;;
77298;SDS011;66361;52.034;20.656;2023-07-31T18:55:11;4.45;;;2.90;;
77298;SDS011;66361;52.034;20.656;2023-07-31T18:59:14;4.47;;;2.92;;
77298;SDS011;66361;52.034;20.656;2023-07-31T19:03:17;3.95;;;2.80;;
77298;SDS011;66361;52.034;20.656;2023-07-31T19:07:22;6.53;;;2.53;;
77298;SDS011;66361;52.034;20.656;2023-07-31T19:11:25;4.20;;;2.50;;
77298;SDS011;66361;52.034;20.656;2023-07-31T19:15:33;4.15;;;2.80;;
77298;SDS011;66361;52.034;20.656;2023-07-31T19:19:36;5.40;;;3.08;;
77298;SDS011;66361;52.034;20.656;2023-07-31T19:23:43;3.90;;;2.72;;
77298;SDS011;66361;52.034;20.656;2023-07-31T19:27:46;3.80;;;2.88;;
77298;SDS011;66361;52.034;20.656;2023-07-31T19:31:54;3.55;;;2.88;;
77298;SDS011;66361;52.034;20.656;2023-07-31T19:35:58;7.25;;;3.60;;
77298;SDS011;66361;52.034;20.656;2023-07-31T19:40:04;4.97;;;3.22;;
77298;SDS011;66361;52.034;20.656;2023-07-31T19:44:08;5.28;;;3.42;;
77298;SDS011;66361;52.034;20.656;2023-07-31T19:48:12;5.07;;;3.08;;
77298;SDS011;66361;52.034;20.656;2023-07-31T19:52:15;6.65;;;3.72;;
77298;SDS011;66361;52.034;20.656;2023-07-31T19:56:20;6.53;;;3.88;;
77298;SDS011;66361;52.034;20.656;2023-07-31T20:00:23;6.20;;;4.57;;
77298;SDS011;66361;52.034;20.656;2023-07-31T20:04:26;4.85;;;3.33;;
77298;SDS011;66361;52.034;20.656;2023-07-31T20:08:30;5.53;;;4.18;;
77298;SDS011;66361;52.034;20.656;2023-07-31T20:12:34;9.25;;;4.30;;
77298;SDS011;66361;52.034;20.656;2023-07-31T20:16:38;7.10;;;4.90;;
77298;SDS011;66361;52.034;20.656;2023-07-31T20:20:42;7.97;;;4.18;;
77298;SDS011;66361;52.034;20.656;2023-07-31T20:24:47;7.80;;;4.40;;
77298;SDS011;66361;52.034;20.656;2023-07-31T20:28:52;9.20;;;4.88;;
77298;SDS011;66361;52.034;20.656;2023-07-31T20:32:55;7.05;;;4.28;;
77298;SDS011;66361;52.034;20.656;2023-07-31T20:36:58;5.75;;;4.00;;
77298;SDS011;66361;52.034;20.656;2023-07-31T20:41:01;7.60;;;4.45;;
77298;SDS011;66361;52.034;20.656;2023-07-31T20:45:07;6.72;;;4.28;;
77298;SDS011;66361;52.034;20.656;2023-07-31T20:49:10;7.18;;;4.22;;
77298;SDS011;66361;52.034;20.656;2023-07-31T20:53:13;5.53;;;4.63;;
77298;SDS011;66361;52.034;20.656;2023-07-31T20:57:18;7.40;;;3.80;;
77298;SDS011;66361;52.034;20.656;2023-07-31T21:01:23;7.53;;;4.22;;
77298;SDS011;66361;52.034;20.656;2023-07-31T21:05:26;10.77;;;4.25;;
77298;SDS011;66361;52.034;20.656;2023-07-31T21:09:30;7.53;;;4.10;;
77298;SDS011;66361;52.034;20.656;2023-07-31T21:13:33;5.72;;;4.22;;
77298;SDS011;66361;52.034;20.656;2023-07-31T21:17:37;6.40;;;4.00;;
77298;SDS011;66361;52.034;20.656;2023-07-31T21:21:41;5.00;;;4.30;;
77298;SDS011;66361;52.034;20.656;2023-07-31T21:25:44;6.35;;;4.55;;
77298;SDS011;66361;52.034;20.656;2023-07-31T21:29:47;6.78;;;4.35;;
77298;SDS011;66361;52.034;20.656;2023-07-31T21:33:51;5.75;;;4.40;;
77298;SDS011;66361;52.034;20.656;2023-07-31T21:37:55;7.30;;;4.88;;
77298;SDS011;66361;52.034;20.656;2023-07-31T21:41:58;7.25;;;4.63;;
77298;SDS011;66361;52.034;20.656;2023-07-31T21:46:01;6.93;;;4.97;;
77298;SDS011;66361;52.034;20.656;2023-07-31T21:50:06;8.77;;;5.20;;
77298;SDS011;66361;52.034;20.656;2023-07-31T21:54:11;8.25;;;5.28;;
77298;SDS011;66361;52.034;20.656;2023-07-31T21:58:14;7.82;;;4.57;;
77298;SDS011;66361;52.034;20.656;2023-07-31T22:02:19;6.93;;;4.47;;
77298;SDS011;66361;52.034;20.656;2023-07-31T22:06:25;7.03;;;4.43;;
77298;SDS011;66361;52.034;20.656;2023-07-31T22:10:28;6.57;;;4.45;;
77298;SDS011;66361;52.034;20.656;2023-07-31T22:14:32;6.10;;;4.75;;
77298;SDS011;66361;52.034;20.656;2023-07-31T22:18:35;5.55;;;4.05;;
77298;SDS011;66361;52.034;20.656;2023-07-31T22:22:42;5.32;;;4.63;;
77298;SDS011;66361;52.034;20.656;2023-07-31T22:26:45;9.75;;;6.03;;
77298;SDS011;66361;52.034;20.656;2023-07-31T22:30:48;7.63;;;4.13;;
77298;SDS011;66361;52.034;20.656;2023-07-31T22:34:52;6.53;;;4.03;;
77298;SDS011;66361;52.034;20.656;2023-07-31T22:38:57;8.32;;;4.00;;
77298;SDS011;66361;52.034;20.656;2023-07-31T22:43:00;4.25;;;3.55;;
77298;SDS011;66361;52.034;20.656;2023-07-31T22:47:04;6.10;;;3.80;;
77298;SDS011;66361;52.034;20.656;2023-07-31T22:51:07;5.07;;;3.83;;
77298;SDS011;66361;52.034;20.656;2023-07-31T22:55:12;4.57;;;3.55;;
77298;SDS011;66361;52.034;20.656;2023-07-31T22:59:15;4.85;;;3.70;;
77298;SDS011;66361;52.034;20.656;2023-07-31T23:03:18;5.63;;;4.70;;
77298;SDS011;66361;52.034;20.656;2023-07-31T23:07:21;5.80;;;4.10;;
77298;SDS011;66361;52.034;20.656;2023-07-31T23:11:26;6.20;;;3.70;;
77298;SDS011;66361;52.034;20.656;2023-07-31T23:15:29;6.22;;;4.53;;
77298;SDS011;66361;52.034;20.656;2023-07-31T23:19:32;4.07;;;3.35;;
77298;SDS011;66361;52.034;20.656;2023-07-31T23:23:35;5.25;;;3.90;;
77298;SDS011;66361;52.034;20.656;2023-07-31T23:27:39;5.13;;;4.38;;
